Time;durP1;ratioP1;P1;durP2;ratioP2;P2;SDS_P1;SDS_P2;PMS_P1;PMS_P2;Temp;Humidity;BMP_temperature;BMP_pressure;BME280_temperature;BME280_humidity;BME280_pressure;Samples;Min_cycle;Max_cycle;Signal;HPM_P1;HPM_P2
2022/09/11 00:00:47;;;;;;;2.47;1.30;;;;;;;14.51;100.00;98142.88;5013899;28;20252;-70
2022/09/11 00:03:14;;;;;;;2.87;1.40;;;;;;;14.55;100.00;98144.03;5015196;28;20206;-70
2022/09/11 00:05:42;;;;;;;3.93;1.30;;;;;;;14.60;100.00;98149.47;5013852;28;20207;-70
2022/09/11 00:08:15;;;;;;;1.30;1.20;;;;;;;14.63;100.00;98146.31;5014479;28;20670;-70
2022/09/11 00:10:43;;;;;;;2.00;1.20;;;;;;;14.66;100.00;98143.13;5012825;28;20601;-70
2022/09/11 00:13:13;;;;;;;3.33;1.40;;;;;;;14.64;100.00;98147.09;5014827;28;20211;-70
2022/09/11 00:15:42;;;;;;;3.53;1.30;;;;;;;14.68;100.00;98143.72;5013830;28;20277;-70
2022/09/11 00:18:10;;;;;;;1.20;1.10;;;;;;;14.71;100.00;98142.41;5014600;28;20241;-70
2022/09/11 00:20:37;;;;;;;2.17;1.30;;;;;;;14.71;100.00;98137.91;5013754;28;20222;-70
2022/09/11 00:23:04;;;;;;;3.93;1.23;;;;;;;14.71;100.00;98140.56;5014407;28;20570;-70
2022/09/11 00:25:39;;;;;;;2.13;1.30;;;;;;;14.76;100.00;98137.16;5013489;28;20297;-70
2022/09/11 00:28:06;;;;;;;1.80;1.50;;;;;;;14.75;100.00;98133.66;5014872;28;20186;-70
2022/09/11 00:30:33;;;;;;;1.90;1.50;;;;;;;14.75;100.00;98132.84;5013448;28;20229;-70
2022/09/11 00:33:00;;;;;;;2.60;1.30;;;;;;;14.76;100.00;98137.97;5014405;28;20218;-69
2022/09/11 00:35:26;;;;;;;1.97;1.37;;;;;;;14.74;100.00;98141.94;5013414;28;20203;-70
2022/09/11 00:37:53;;;;;;;3.00;1.27;;;;;;;14.80;100.00;98128.41;5014199;28;20331;-70
2022/09/11 00:40:19;;;;;;;5.57;1.50;;;;;;;14.81;100.00;98132.69;5013387;28;20379;-70
2022/09/11 00:42:52;;;;;;;1.67;1.13;;;;;;;14.81;100.00;98137.22;5014276;28;20206;-70
2022/09/11 00:45:25;;;;;;;1.87;1.30;;;;;;;14.77;100.00;98131.56;5013328;28;20198;-70
2022/09/11 00:47:58;;;;;;;2.23;1.27;;;;;;;14.79;100.00;98132.13;5012777;28;20677;-70
2022/09/11 00:50:28;;;;;;;2.37;1.07;;;;;;;14.75;100.00;98130.19;4996679;28;20701;-69
2022/09/11 00:53:00;;;;;;;1.13;0.80;;;;;;;14.74;100.00;98133.91;5014258;28;20194;-70
2022/09/11 00:55:31;;;;;;;2.93;1.10;;;;;;;14.70;100.00;98130.09;5013345;28;20214;-70
2022/09/11 00:58:18;;;;;;;1.73;1.30;;;;;;;14.65;100.00;98125.47;5012963;28;20214;-69
2022/09/11 01:00:45;;;;;;;2.57;1.00;;;;;;;14.73;100.00;98126.91;5012788;28;20241;-70
2022/09/11 01:03:12;;;;;;;2.00;1.20;;;;;;;14.76;100.00;98131.78;5014066;28;20206;-70
2022/09/11 01:05:41;;;;;;;3.63;1.43;;;;;;;14.79;100.00;98134.00;5012882;28;20212;-70
2022/09/11 01:08:07;;;;;;;5.33;1.30;;;;;;;14.84;100.00;98124.16;5012792;28;20214;-70
2022/09/11 01:11:15;;;;;;;1.90;1.17;;;;;;;14.84;100.00;98120.69;5013885;28;20321;-70
2022/09/11 01:13:52;;;;;;;1.77;1.00;;;;;;;14.79;100.00;98126.75;5004669;28;20566;-69
2022/09/11 01:16:25;;;;;;;2.33;1.10;;;;;;;14.84;100.00;98124.16;5011751;28;20203;-70
2022/09/11 01:19:00;;;;;;;2.40;0.90;;;;;;;14.83;100.00;98116.41;5013653;28;20233;-70
2022/09/11 01:22:00;;;;;;;1.87;1.00;;;;;;;14.85;100.00;98120.44;5012552;28;20206;-70
2022/09/11 01:24:51;;;;;;;1.50;1.20;;;;;;;14.93;100.00;98125.38;4994207;28;20191;-70
2022/09/11 01:27:49;;;;;;;2.67;1.17;;;;;;;14.92;100.00;98122.97;4993882;28;20648;-70
2022/09/11 01:30:27;;;;;;;1.50;1.00;;;;;;;14.93;100.00;98128.06;4998709;28;20654;-70
2022/09/11 01:33:18;;;;;;;2.67;1.30;;;;;;;14.91;100.00;98124.00;5012280;28;20665;-69
2022/09/11 01:36:27;;;;;;;1.73;1.00;;;;;;;14.91;100.00;98132.84;5012645;28;20582;-70
2022/09/11 01:39:01;;;;;;;2.43;1.13;;;;;;;14.95;100.00;98133.16;5001412;28;20280;-70
2022/09/11 01:41:40;;;;;;;1.33;1.00;;;;;;;14.97;100.00;98129.19;5012837;28;20206;-70
2022/09/11 01:44:15;;;;;;;3.53;1.30;;;;;;;14.90;100.00;98123.19;5013732;28;20205;-70
2022/09/11 01:46:46;;;;;;;1.60;1.20;;;;;;;14.92;100.00;98129.09;5012759;28;20267;-70
2022/09/11 01:49:24;;;;;;;3.47;1.60;;;;;;;14.94;100.00;98128.88;5013252;28;20241;-70
2022/09/11 01:51:56;;;;;;;1.60;1.30;;;;;;;14.90;100.00;98133.91;5011701;28;20203;-69
2022/09/11 01:54:29;;;;;;;1.93;1.40;;;;;;;14.87;100.00;98133.56;5013607;28;20270;-69
2022/09/11 01:57:05;;;;;;;4.10;1.30;;;;;;;14.86;100.00;98130.09;5010961;28;20203;-70
2022/09/11 01:59:41;;;;;;;1.73;1.20;;;;;;;14.87;100.00;98129.03;5011167;28;20238;-70
2022/09/11 02:02:12;;;;;;;2.33;1.27;;;;;;;14.85;100.00;98133.00;5013501;28;20595;-69
2022/09/11 02:04:44;;;;;;;2.20;1.30;;;;;;;14.82;100.00;98134.31;5011608;28;20195;-70
2022/09/11 02:07:16;;;;;;;3.00;1.50;;;;;;;14.85;100.00;98143.72;5012762;28;20191;-70
2022/09/11 02:10:18;;;;;;;4.63;1.50;;;;;;;14.82;100.00;98137.00;5012337;28;20226;-70
2022/09/11 02:12:53;;;;;;;2.37;1.40;;;;;;;14.79;100.00;98132.13;5001941;28;20206;-69
2022/09/11 02:15:20;;;;;;;5.23;1.50;;;;;;;14.84;100.00;98139.44;5012272;28;20297;-69
2022/09/11 02:17:54;;;;;;;2.87;1.50;;;;;;;14.83;100.00;98146.63;5011804;28;20309;-70
2022/09/11 02:20:20;;;;;;;3.17;1.80;;;;;;;14.82;100.00;98137.00;5014179;28;20227;-69
2022/09/11 02:22:47;;;;;;;2.37;1.67;;;;;;;14.84;100.00;98139.44;5012168;28;20241;-70
2022/09/11 02:25:14;;;;;;;3.73;1.70;;;;;;;14.79;100.00;98142.81;5012127;28;20202;-70
2022/09/11 02:27:40;;;;;;;3.10;1.80;;;;;;;14.85;100.00;98147.22;5012589;28;20206;-70
2022/09/11 02:30:08;;;;;;;2.00;1.77;;;;;;;14.92;100.00;98141.69;5012787;28;20226;-70
2022/09/11 02:32:38;;;;;;;2.90;1.70;;;;;;;15.01;100.00;98143.72;5014190;28;20207;-70
2022/09/11 02:35:05;;;;;;;5.73;1.77;;;;;;;15.03;100.00;98143.47;5015263;28;20226;-70
2022/09/11 02:37:53;;;;;;;2.10;1.83;;;;;;;15.15;100.00;98152.22;5015258;28;20213;-69
2022/09/11 02:40:37;;;;;;;3.70;1.90;;;;;;;15.09;100.00;98145.97;5016004;28;20237;-69
2022/09/11 02:43:33;;;;;;;2.80;2.10;;;;;;;15.09;100.00;98147.84;5014992;28;20612;-70
2022/09/11 02:46:19;;;;;;;4.23;1.70;;;;;;;15.17;100.00;98152.78;5014455;28;20661;-70
2022/09/11 02:48:55;;;;;;;4.80;2.23;;;;;;;15.20;100.00;98166.47;5011911;28;20197;-70
2022/09/11 02:51:33;;;;;;;4.30;1.90;;;;;;;15.22;100.00;98156.34;4998004;28;20202;-69
2022/09/11 02:54:23;;;;;;;3.80;2.30;;;;;;;15.21;100.00;98159.28;5015054;28;20197;-69
2022/09/11 02:56:59;;;;;;;4.23;2.37;;;;;;;15.21;100.00;98167.31;5015491;28;20206;-69
2022/09/11 02:59:33;;;;;;;2.40;1.90;;;;;;;15.21;100.00;98160.09;5014798;28;20325;-69
2022/09/11 03:02:00;;;;;;;3.27;2.30;;;;;;;15.24;100.00;98156.13;5015367;28;20261;-69
2022/09/11 03:04:28;;;;;;;4.17;2.10;;;;;;;15.21;100.00;98154.75;5015985;28;20213;-69
2022/09/11 03:06:57;;;;;;;3.27;2.07;;;;;;;15.23;100.00;98160.66;5014769;28;20214;-70
2022/09/11 03:09:23;;;;;;;4.23;2.60;;;;;;;15.23;100.00;98159.81;5016153;28;20321;-69
2022/09/11 03:11:50;;;;;;;3.97;2.40;;;;;;;15.22;100.00;98152.84;5013871;28;20210;-70
2022/09/11 03:14:16;;;;;;;4.17;2.03;;;;;;;15.24;100.00;98148.88;5015829;28;20202;-70
2022/09/11 03:16:42;;;;;;;2.63;2.10;;;;;;;15.30;100.00;98153.25;5014455;28;20206;-70
2022/09/11 03:19:09;;;;;;;3.50;2.40;;;;;;;15.24;100.00;98162.25;5015572;28;20230;-70
2022/09/11 03:21:36;;;;;;;4.07;2.20;;;;;;;15.29;100.00;98154.28;5014620;28;20685;-70
2022/09/11 03:24:03;;;;;;;3.37;2.53;;;;;;;15.28;100.00;98154.56;5015692;28;20264;-70
2022/09/11 03:26:30;;;;;;;2.87;2.33;;;;;;;15.24;100.00;98151.56;5014182;28;20616;-70
2022/09/11 03:28:56;;;;;;;3.20;2.37;;;;;;;15.26;100.00;98152.13;5015555;28;20206;-70
2022/09/11 03:31:23;;;;;;;4.00;2.40;;;;;;;15.22;100.00;98153.69;5014422;28;20305;-71
2022/09/11 03:33:49;;;;;;;3.30;2.80;;;;;;;15.28;100.00;98151.88;5014828;28;20674;-70
2022/09/11 03:36:16;;;;;;;4.10;2.57;;;;;;;15.23;100.00;98149.13;5015266;28;20221;-70
2022/09/11 03:38:44;;;;;;;5.30;2.47;;;;;;;15.26;100.00;98160.16;5015688;28;20230;-70
2022/09/11 03:41:10;;;;;;;3.67;2.57;;;;;;;15.23;100.00;98147.25;5014363;28;20269;-70
2022/09/11 03:43:37;;;;;;;3.07;2.70;;;;;;;15.23;100.00;98149.94;5014755;28;20670;-70
2022/09/11 03:46:04;;;;;;;4.10;2.50;;;;;;;15.25;100.00;98150.50;5012973;28;20210;-70
2022/09/11 03:48:30;;;;;;;5.40;2.67;;;;;;;15.22;100.00;98156.34;5014896;28;20211;-70
2022/09/11 03:50:57;;;;;;;4.13;2.83;;;;;;;15.21;100.00;98160.09;5013986;28;20754;-70
2022/09/11 03:53:24;;;;;;;5.63;3.33;;;;;;;15.21;100.00;98162.78;5015222;28;20213;-70
2022/09/11 03:55:50;;;;;;;3.97;2.93;;;;;;;15.27;100.00;98156.44;5013010;28;20211;-70
2022/09/11 03:58:18;;;;;;;5.93;3.13;;;;;;;15.22;100.00;98164.38;5015013;28;20229;-70
2022/09/11 04:00:46;;;;;;;6.47;3.00;;;;;;;15.25;100.00;98163.88;5013719;28;20296;-70
2022/09/11 04:03:14;;;;;;;4.40;2.70;;;;;;;15.27;100.00;98158.28;5014807;28;20218;-70
2022/09/11 04:05:42;;;;;;;4.07;2.80;;;;;;;15.25;100.00;98153.16;5014028;28;20214;-70
2022/09/11 04:08:12;;;;;;;4.50;3.37;;;;;;;15.27;100.00;98161.78;5013804;28;20210;-70
2022/09/11 04:10:38;;;;;;;5.40;2.93;;;;;;;15.25;100.00;98153.16;5013819;28;20222;-70
2022/09/11 04:13:05;;;;;;;3.80;3.23;;;;;;;15.26;100.00;98160.16;5014670;28;20206;-70
2022/09/11 04:15:31;;;;;;;4.33;3.53;;;;;;;15.28;100.00;98158.03;5013521;28;20202;-70
2022/09/11 04:17:58;;;;;;;6.67;3.77;;;;;;;15.24;100.00;98162.25;5013136;28;20234;-70
2022/09/11 04:20:26;;;;;;;6.33;4.30;;;;;;;15.29;100.00;98162.34;5013263;28;20712;-70
2022/09/11 04:22:52;;;;;;;5.10;3.60;;;;;;;15.28;100.00;98171.44;5013954;28;20605;-70
2022/09/11 04:25:19;;;;;;;4.20;3.77;;;;;;;15.28;100.00;98179.47;5012696;28;20211;-70
2022/09/11 04:27:45;;;;;;;4.23;3.67;;;;;;;15.32;100.00;98179.78;5013483;28;20213;-70
2022/09/11 04:30:12;;;;;;;4.17;3.63;;;;;;;15.35;100.00;98182.84;5013610;28;20226;-70
2022/09/11 04:32:39;;;;;;;4.30;3.80;;;;;;;15.33;100.00;98176.88;5014424;28;20212;-70
2022/09/11 04:35:05;;;;;;;5.60;3.80;;;;;;;15.31;100.00;98176.31;5013441;28;20199;-70
2022/09/11 04:37:34;;;;;;;4.20;3.47;;;;;;;15.27;100.00;98177.84;5014340;28;20260;-70
2022/09/11 04:40:00;;;;;;;8.83;3.90;;;;;;;15.29;100.00;98183.75;5012953;28;20258;-70
2022/09/11 04:42:27;;;;;;;7.53;4.07;;;;;;;15.31;100.00;98192.38;5013740;28;20213;-70
2022/09/11 04:44:53;;;;;;;4.73;4.10;;;;;;;15.34;100.00;98186.53;5013233;28;20213;-70
2022/09/11 04:47:19;;;;;;;5.27;3.97;;;;;;;15.33;100.00;98192.94;5014159;28;20217;-70
2022/09/11 04:49:46;;;;;;;5.67;3.90;;;;;;;15.28;100.00;98203.56;5013290;28;20225;-70
2022/09/11 04:52:13;;;;;;;4.43;3.77;;;;;;;15.27;100.00;98201.97;5014215;28;20268;-70
2022/09/11 04:54:40;;;;;;;4.47;3.90;;;;;;;15.29;100.00;98205.19;5012599;28;20257;-70
2022/09/11 04:57:07;;;;;;;4.70;4.30;;;;;;;15.29;100.00;98205.19;5013539;28;20701;-70
2022/09/11 04:59:34;;;;;;;6.77;3.97;;;;;;;15.32;100.00;98211.94;5012215;28;20241;-70
2022/09/11 05:02:01;;;;;;;4.13;3.73;;;;;;;15.35;100.00;98214.97;5014121;28;20603;-70
2022/09/11 05:04:27;;;;;;;4.70;4.23;;;;;;;15.31;100.00;98221.03;5013135;28;20199;-70
2022/09/11 05:06:56;;;;;;;4.40;4.00;;;;;;;15.30;100.00;98230.13;5013761;28;20207;-70
2022/09/11 05:09:23;;;;;;;6.53;4.53;;;;;;;15.27;100.00;98228.75;5012899;28;20221;-70
2022/09/11 05:11:49;;;;;;;4.43;4.00;;;;;;;15.28;100.00;98227.69;5013558;28;20590;-70
2022/09/11 05:14:15;;;;;;;6.77;4.60;;;;;;;15.37;100.00;98236.16;5013020;28;20233;-70
2022/09/11 05:16:43;;;;;;;5.37;4.60;;;;;;;15.37;100.00;98231.59;5012910;28;20207;-70
2022/09/11 05:19:09;;;;;;;7.20;4.17;;;;;;;15.38;100.00;98237.78;5013642;28;20234;-70
2022/09/11 05:21:36;;;;;;;5.13;4.10;;;;;;;15.34;100.00;98237.44;5013767;28;20206;-70
2022/09/11 05:24:03;;;;;;;5.57;4.57;;;;;;;15.37;100.00;98241.53;5013789;28;20268;-70
2022/09/11 05:26:35;;;;;;;4.60;4.13;;;;;;;15.38;100.00;98238.59;4995632;28;20207;-70
2022/09/11 05:29:12;;;;;;;5.10;4.60;;;;;;;15.35;100.00;98247.13;4993677;28;20211;-70
2022/09/11 05:31:39;;;;;;;5.07;4.20;;;;;;;15.40;100.00;98247.19;5002071;28;20206;-70
2022/09/11 05:34:05;;;;;;;6.20;4.40;;;;;;;15.35;100.00;98255.16;5010340;28;20617;-70
2022/09/11 05:36:34;;;;;;;4.90;4.47;;;;;;;15.36;100.00;98251.41;5013100;28;20681;-70
2022/09/11 05:39:00;;;;;;;5.03;4.53;;;;;;;15.38;100.00;98253.84;5013257;28;20265;-70
2022/09/11 05:41:27;;;;;;;5.70;4.50;;;;;;;15.38;100.00;98246.63;5012734;28;20207;-70
2022/09/11 05:43:54;;;;;;;4.90;4.40;;;;;;;15.43;100.00;98251.25;5013302;28;20206;-70
2022/09/11 05:46:21;;;;;;;5.20;4.63;;;;;;;15.45;100.00;98255.31;5011212;28;20650;-70
2022/09/11 05:48:47;;;;;;;4.70;4.40;;;;;;;15.46;100.00;98264.97;5013574;28;20229;-70
2022/09/11 05:51:17;;;;;;;7.00;4.90;;;;;;;15.42;100.00;98255.78;5012762;28;20233;-70
2022/09/11 05:53:44;;;;;;;6.87;4.83;;;;;;;15.46;100.00;98262.28;5013174;28;20238;-70
2022/09/11 05:56:19;;;;;;;5.70;5.17;;;;;;;15.48;100.00;98270.91;5011499;28;20280;-70
2022/09/11 05:58:47;;;;;;;5.20;4.63;;;;;;;15.51;100.00;98270.41;5013535;28;20210;-70
2022/09/11 06:01:17;;;;;;;8.07;4.47;;;;;;;15.53;100.00;98271.00;5010936;28;20253;-70
2022/09/11 06:03:44;;;;;;;5.00;4.60;;;;;;;15.48;100.00;98273.59;5013430;28;20241;-70
2022/09/11 06:06:12;;;;;;;5.57;4.97;;;;;;;15.49;100.00;98282.44;5011652;28;20214;-70
2022/09/11 06:08:41;;;;;;;5.47;4.70;;;;;;;15.50;100.00;98282.19;5015516;28;20214;-70
2022/09/11 06:11:08;;;;;;;8.37;4.83;;;;;;;15.55;100.00;98287.63;5015121;28;20218;-70
2022/09/11 06:13:40;;;;;;;5.53;4.80;;;;;;;15.55;100.00;98289.47;5016984;28;20218;-70
2022/09/11 06:16:11;;;;;;;5.60;4.30;;;;;;;15.56;100.00;98307.19;5015484;28;20203;-70
2022/09/11 06:18:37;;;;;;;8.57;5.20;;;;;;;15.58;100.00;98305.91;5010115;28;20229;-70
2022/09/11 06:21:06;;;;;;;6.07;5.10;;;;;;;15.61;100.00;98302.72;5015992;28;20222;-70
2022/09/11 06:23:34;;;;;;;5.37;4.77;;;;;;;15.64;100.00;98306.75;5016986;28;20209;-70
2022/09/11 06:26:05;;;;;;;6.73;5.20;;;;;;;15.65;100.00;98303.84;5016033;28;20211;-70
2022/09/11 06:28:31;;;;;;;5.73;5.23;;;;;;;15.72;100.00;98309.88;5016176;28;20232;-70
2022/09/11 06:30:58;;;;;;;8.03;4.80;;;;;;;15.78;100.00;98311.56;5015322;28;20223;-70
2022/09/11 06:33:24;;;;;;;6.87;4.67;;;;;;;15.78;100.00;98310.75;5016755;28;20245;-70
2022/09/11 06:36:00;;;;;;;5.80;5.20;;;;;;;15.76;100.00;98319.03;5014889;28;20554;-70
2022/09/11 06:38:28;;;;;;;5.37;4.87;;;;;;;15.81;100.00;98311.06;5015653;28;20202;-70
2022/09/11 06:40:55;;;;;;;5.60;4.90;;;;;;;15.76;100.00;98319.03;5016427;28;20285;-70
2022/09/11 06:43:21;;;;;;;5.13;4.70;;;;;;;15.79;100.00;98318.53;5015591;28;20202;-70
2022/09/11 06:45:48;;;;;;;5.57;4.87;;;;;;;15.77;100.00;98326.03;5015603;28;20209;-70
2022/09/11 06:48:18;;;;;;;6.00;5.40;;;;;;;15.84;100.00;98334.69;5014274;28;20202;-70
2022/09/11 06:50:45;;;;;;;5.60;5.13;;;;;;;15.88;100.00;98333.16;5014453;28;20219;-70
2022/09/11 06:53:13;;;;;;;5.77;5.17;;;;;;;15.92;100.00;98333.50;5016001;28;20207;-70
2022/09/11 06:55:40;;;;;;;5.73;5.20;;;;;;;15.83;100.00;98327.72;5014887;28;20206;-70
2022/09/11 06:58:07;;;;;;;6.60;5.30;;;;;;;15.88;100.00;98335.81;5016125;28;20210;-70
2022/09/11 07:00:35;;;;;;;7.33;5.47;;;;;;;15.96;100.00;98334.63;5015547;28;20720;-70
2022/09/11 07:03:02;;;;;;;9.30;5.33;;;;;;;16.01;100.00;98334.69;5015376;28;20237;-71
2022/09/11 07:05:29;;;;;;;6.83;5.20;;;;;;;16.00;100.00;98333.88;5016125;28;20213;-70
2022/09/11 07:07:56;;;;;;;5.77;5.20;;;;;;;15.94;100.00;98337.56;5015920;28;20206;-70
2022/09/11 07:10:23;;;;;;;6.70;5.43;;;;;;;15.94;100.00;98334.03;5015576;28;20233;-70
2022/09/11 07:12:52;;;;;;;6.00;5.40;;;;;;;15.96;100.00;98326.59;5015670;28;20207;-70
2022/09/11 07:15:19;;;;;;;6.33;5.20;;;;;;;15.94;100.00;98326.00;5015826;28;20301;-70
2022/09/11 07:17:45;;;;;;;7.40;5.70;;;;;;;15.95;100.00;98332.97;5015344;28;20229;-70
2022/09/11 07:20:12;;;;;;;6.20;5.33;;;;;;;15.94;100.00;98334.88;5015437;28;20230;-71
2022/09/11 07:22:39;;;;;;;7.33;6.63;;;;;;;15.97;100.00;98331.66;5014322;28;20207;-70
2022/09/11 07:25:06;;;;;;;7.50;6.07;;;;;;;15.96;100.00;98327.38;5015370;28;20202;-71
2022/09/11 07:27:32;;;;;;;6.93;6.33;;;;;;;15.95;100.00;98331.13;5015419;28;20214;-70
2022/09/11 07:29:59;;;;;;;6.30;5.73;;;;;;;16.04;100.00;98332.31;5015593;28;20318;-70
2022/09/11 07:32:26;;;;;;;6.63;5.53;;;;;;;16.17;100.00;98331.97;5015316;28;20214;-70
2022/09/11 07:34:52;;;;;;;6.87;5.43;;;;;;;16.19;100.00;98343.25;5016004;28;20206;-70
2022/09/11 07:37:18;;;;;;;5.87;5.27;;;;;;;16.23;100.00;98335.53;5015489;28;20214;-70
2022/09/11 07:39:45;;;;;;;6.63;5.67;;;;;;;16.17;100.00;98348.06;5015490;28;20237;-70
2022/09/11 07:42:12;;;;;;;5.70;5.13;;;;;;;16.16;100.00;98337.59;5015205;28;20211;-70
2022/09/11 07:44:38;;;;;;;5.83;5.07;;;;;;;16.20;100.00;98350.25;5015019;28;20689;-70
2022/09/11 07:47:05;;;;;;;6.43;5.13;;;;;;;16.15;100.00;98352.06;5015289;28;20241;-70
2022/09/11 07:49:31;;;;;;;6.80;6.20;;;;;;;16.09;100.00;98353.03;5014858;28;20235;-70
2022/09/11 07:51:59;;;;;;;7.50;6.63;;;;;;;16.16;100.00;98353.69;5014891;28;20211;-70
2022/09/11 07:54:28;;;;;;;6.50;5.90;;;;;;;16.20;100.00;98366.34;5014757;28;20265;-70
2022/09/11 07:56:54;;;;;;;6.17;5.57;;;;;;;16.26;100.00;98360.00;5014905;28;20233;-70
2022/09/11 07:59:21;;;;;;;6.23;5.63;;;;;;;16.23;100.00;98362.34;5014685;28;20226;-70
2022/09/11 08:01:49;;;;;;;6.30;5.70;;;;;;;16.31;100.00;98361.94;5014418;28;20337;-70
2022/09/11 08:04:16;;;;;;;6.93;6.17;;;;;;;16.35;100.00;98363.88;5014907;28;20237;-70
2022/09/11 08:06:42;;;;;;;5.40;4.93;;;;;;;16.46;100.00;98375.59;5014837;28;20206;-70
2022/09/11 08:09:13;;;;;;;6.43;5.50;;;;;;;16.43;100.00;98368.84;5014782;28;20257;-70
2022/09/11 08:11:45;;;;;;;6.43;5.83;;;;;;;16.51;100.00;98378.34;5014424;28;20701;-70
2022/09/11 08:14:14;;;;;;;6.97;6.00;;;;;;;16.64;100.00;98375.31;5014526;28;20206;-70
2022/09/11 08:16:41;;;;;;;5.93;5.40;;;;;;;16.70;100.00;98380.44;5014577;28;20218;-70
2022/09/11 08:19:14;;;;;;;5.40;4.93;;;;;;;16.72;100.00;98374.84;5014691;28;20210;-71
2022/09/11 08:21:40;;;;;;;6.30;5.27;;;;;;;16.83;100.00;98380.06;5014682;28;20218;-70
2022/09/11 08:24:07;;;;;;;6.33;5.73;;;;;;;16.94;100.00;98379.16;5014320;28;20209;-70
2022/09/11 08:26:36;;;;;;;6.37;5.77;;;;;;;16.88;98.65;98384.72;5013968;28;20662;-70
2022/09/11 08:29:04;;;;;;;6.03;5.53;;;;;;;17.05;100.00;98388.94;5013872;28;20238;-70
2022/09/11 08:31:32;;;;;;;5.47;4.93;;;;;;;17.25;100.00;98393.72;5013375;28;20678;-70
2022/09/11 08:33:59;;;;;;;6.23;5.63;;;;;;;17.13;95.96;98395.72;5014527;28;20206;-71
2022/09/11 08:36:25;;;;;;;6.00;5.50;;;;;;;17.15;98.38;98397.09;5013982;28;20218;-70
2022/09/11 08:38:52;;;;;;;6.03;5.30;;;;;;;17.16;94.59;98397.91;5014927;28;20255;-70
2022/09/11 08:41:41;;;;;;;8.00;6.67;;;;;;;17.04;97.34;98397.25;5013801;28;20234;-71
2022/09/11 08:44:55;;;;;;;5.90;5.50;;;;;;;16.93;98.71;98393.66;5014175;28;20197;-70
2022/09/11 08:47:25;;;;;;;6.00;5.50;;;;;;;16.85;97.86;98391.41;5013298;28;20206;-70
2022/09/11 08:49:59;;;;;;;6.40;5.50;;;;;;;16.82;100.00;98389.22;5014059;28;20653;-70
2022/09/11 08:52:25;;;;;;;6.43;5.87;;;;;;;16.84;99.57;98394.34;5012928;28;20199;-70
2022/09/11 08:54:57;;;;;;;7.10;6.50;;;;;;;16.82;97.91;98401.84;5013978;28;20206;-70
2022/09/11 08:57:36;;;;;;;7.13;6.60;;;;;;;16.89;97.70;98402.44;5013984;28;20565;-70
2022/09/11 09:00:18;;;;;;;6.47;5.70;;;;;;;17.00;96.56;98399.63;5013964;28;20245;-70
2022/09/11 09:03:42;;;;;;;7.30;6.70;;;;;;;17.28;94.55;98402.06;5013998;28;20187;-70
2022/09/11 09:06:31;;;;;;;6.60;6.00;;;;;;;17.62;93.11;98406.22;5011658;28;20708;-70
2022/09/11 09:09:22;;;;;;;7.57;6.83;;;;;;;17.58;89.10;98394.34;5011506;28;20646;-70
2022/09/11 09:12:05;;;;;;;5.87;5.37;;;;;;;17.60;92.41;98396.78;5008111;28;20210;-71
2022/09/11 09:14:43;;;;;;;6.27;5.67;;;;;;;17.82;87.34;98401.00;5013729;28;20210;-71
2022/09/11 09:17:19;;;;;;;5.20;4.80;;;;;;;18.08;88.09;98402.00;5014532;28;20186;-71
2022/09/11 09:20:01;;;;;;;5.20;4.70;;;;;;;18.29;85.97;98398.41;5013372;28;20713;-70
2022/09/11 09:22:57;;;;;;;5.07;4.57;;;;;;;18.31;86.53;98410.53;5013410;28;20198;-71
2022/09/11 09:25:25;;;;;;;5.47;3.97;;;;;;;18.39;85.48;98410.09;5013695;28;20222;-70
2022/09/11 09:27:59;;;;;;;5.77;5.17;;;;;;;18.26;83.41;98410.50;5013611;28;20221;-70
2022/09/11 09:30:30;;;;;;;4.97;4.50;;;;;;;18.26;84.97;98415.06;5013539;28;20586;-70
2022/09/11 09:33:11;;;;;;;4.23;3.93;;;;;;;18.38;82.27;98413.84;5013571;28;20186;-71
2022/09/11 09:35:44;;;;;;;4.67;4.27;;;;;;;18.36;81.18;98410.59;5012102;28;20190;-70
2022/09/11 09:38:20;;;;;;;4.60;4.20;;;;;;;18.32;86.50;98408.66;5013464;28;20557;-70
2022/09/11 09:41:10;;;;;;;4.47;4.10;;;;;;;18.23;83.15;98405.63;5013319;28;20233;-70
2022/09/11 09:44:03;;;;;;;5.73;5.13;;;;;;;18.22;83.93;98411.25;5016479;28;20214;-70
2022/09/11 09:46:40;;;;;;;4.50;4.10;;;;;;;18.36;82.66;98413.28;5017060;28;20737;-70
2022/09/11 09:49:10;;;;;;;4.83;4.33;;;;;;;18.34;80.87;98418.13;5016283;28;20195;-71
2022/09/11 09:51:38;;;;;;;7.20;5.80;;;;;;;18.14;82.66;98409.88;5015370;28;20595;-71
2022/09/11 09:54:05;;;;;;;5.50;4.17;;;;;;;18.27;84.59;98411.31;5010520;28;20344;-70
2022/09/11 09:56:36;;;;;;;4.80;4.40;;;;;;;18.36;81.73;98412.47;5014777;28;20214;-71
2022/09/11 09:59:15;;;;;;;4.63;4.23;;;;;;;18.29;80.27;98418.06;5005580;28;20194;-71
2022/09/11 10:01:43;;;;;;;6.07;5.23;;;;;;;18.22;77.87;98412.09;5013872;28;20249;-70
2022/09/11 10:04:18;;;;;;;5.13;4.70;;;;;;;18.39;78.31;98412.78;5016761;28;20214;-71
2022/09/11 10:06:46;;;;;;;6.00;5.33;;;;;;;18.31;77.80;98412.41;5016383;28;20226;-70
2022/09/11 10:09:28;;;;;;;5.67;5.10;;;;;;;18.52;75.83;98415.00;5016803;28;20207;-71
2022/09/11 10:12:07;;;;;;;4.23;3.90;;;;;;;18.62;78.17;98415.06;5017138;28;20191;-71
2022/09/11 10:14:51;;;;;;;5.43;4.83;;;;;;;18.60;78.44;98409.09;5016990;28;20218;-70
2022/09/11 10:17:30;;;;;;;6.30;4.90;;;;;;;18.47;79.56;98417.69;5016781;28;20562;-71
2022/09/11 10:20:17;;;;;;;5.93;5.33;;;;;;;18.50;77.85;98424.41;5016804;28;20238;-71
2022/09/11 10:22:44;;;;;;;4.83;4.43;;;;;;;18.50;82.15;98419.03;5016563;28;20195;-71
2022/09/11 10:25:16;;;;;;;5.87;4.40;;;;;;;18.52;83.00;98415.00;5016299;28;20725;-71
2022/09/11 10:28:04;;;;;;;5.73;5.00;;;;;;;18.40;79.96;98422.47;5013818;28;20211;-71
2022/09/11 10:30:58;;;;;;;5.07;4.50;;;;;;;18.57;81.15;98416.91;5014057;28;20227;-71
2022/09/11 10:33:28;;;;;;;5.07;4.67;;;;;;;18.82;81.35;98423.22;5003152;28;20254;-71
2022/09/11 10:35:56;;;;;;;5.10;4.70;;;;;;;18.82;83.61;98415.16;4996462;28;20530;-71
2022/09/11 10:38:29;;;;;;;5.53;5.03;;;;;;;18.99;79.85;98410.38;4996163;28;20222;-73
2022/09/11 10:41:02;;;;;;;5.20;4.70;;;;;;;19.13;78.24;98407.97;4996352;28;20231;-71
2022/09/11 10:44:02;;;;;;;6.40;5.80;;;;;;;18.73;78.28;98415.94;4996361;28;20705;-70
2022/09/11 10:46:36;;;;;;;6.17;4.83;;;;;;;18.81;83.85;98408.16;4996284;28;20215;-71
2022/09/11 10:49:02;;;;;;;6.23;5.63;;;;;;;18.65;79.59;98411.03;4996288;28;20283;-71
2022/09/11 10:51:40;;;;;;;6.20;5.60;;;;;;;18.68;84.14;98405.94;4996627;28;20203;-71
2022/09/11 10:54:25;;;;;;;5.57;5.07;;;;;;;19.39;77.29;98405.13;4995666;28;20198;-70
2022/09/11 10:57:04;;;;;;;5.63;5.20;;;;;;;19.75;71.66;98414.09;4996089;28;20693;-71
2022/09/11 10:59:55;;;;;;;6.43;5.10;;;;;;;19.61;71.24;98402.19;4996136;28;20242;-71
2022/09/11 11:02:30;;;;;;;5.80;5.20;;;;;;;19.53;74.69;98398.16;4994979;28;20285;-71
2022/09/11 11:05:00;;;;;;;5.57;4.93;;;;;;;18.97;67.48;98401.75;4996411;28;20206;-71
2022/09/11 11:07:52;;;;;;;4.73;4.27;;;;;;;19.15;68.91;98398.59;4996269;28;20188;-71
2022/09/11 11:10:44;;;;;;;4.67;4.27;;;;;;;19.35;71.11;98404.06;4995008;28;20227;-71
2022/09/11 11:13:32;;;;;;;6.00;4.60;;;;;;;19.61;69.87;98396.81;4995021;28;20195;-71
2022/09/11 11:16:05;;;;;;;5.53;5.00;;;;;;;19.52;70.11;98404.63;4995973;28;20666;-71
2022/09/11 11:18:37;;;;;;;5.17;4.67;;;;;;;19.48;74.87;98401.94;4995832;28;20631;-71
2022/09/11 11:21:32;;;;;;;4.83;4.37;;;;;;;19.72;74.18;98398.47;4995773;28;20235;-71
2022/09/11 11:24:26;;;;;;;4.90;4.50;;;;;;;19.42;70.29;98391.09;4994843;28;20195;-71
2022/09/11 11:26:56;;;;;;;4.77;4.20;;;;;;;19.27;72.61;98401.88;4995732;28;20262;-71
2022/09/11 11:33:17;;;;;;;7.60;5.10;;;;;;;19.49;72.22;98388.97;5014128;28;20245;-71
2022/09/11 11:35:59;;;;;;;5.47;4.97;;;;;;;19.23;71.49;98400.78;5014621;28;20202;-71
2022/09/11 11:38:34;;;;;;;4.93;4.40;;;;;;;19.61;70.33;98396.81;5015149;28;20536;-71
2022/09/11 11:41:09;;;;;;;4.90;4.50;;;;;;;19.46;66.14;98416.47;5012738;28;20596;-70
2022/09/11 11:43:40;;;;;;;4.83;4.33;;;;;;;19.28;67.41;98395.38;5013056;28;20284;-71
2022/09/11 11:46:20;;;;;;;5.33;4.83;;;;;;;19.39;68.91;98405.13;5014509;28;20217;-71
2022/09/11 11:48:52;;;;;;;4.20;3.90;;;;;;;19.88;70.44;98402.75;5014758;28;20195;-71
2022/09/11 11:51:26;;;;;;;4.93;4.50;;;;;;;20.21;68.30;98390.63;5015250;28;20226;-71
2022/09/11 11:53:59;;;;;;;4.60;4.20;;;;;;;20.55;62.90;98397.03;5014791;28;20198;-71